createdAt,value
2019-03-30T00:00:33.233Z,13.10
2019-03-30T00:03:01.643Z,13.00
2019-03-30T00:05:30.081Z,13.00
2019-03-30T00:07:58.494Z,13.00
2019-03-30T00:10:26.936Z,12.90
2019-03-30T00:12:55.350Z,12.90
2019-03-30T00:15:23.787Z,12.90
2019-03-30T00:17:52.307Z,12.90
2019-03-30T00:20:20.732Z,12.90
2019-03-30T00:22:49.156Z,12.90
2019-03-30T00:25:17.577Z,12.90
2019-03-30T00:27:46.002Z,12.90
2019-03-30T00:30:14.498Z,12.90
2019-03-30T00:32:42.911Z,12.90
2019-03-30T00:35:11.350Z,12.90
2019-03-30T00:37:39.780Z,12.90
2019-03-30T00:40:08.278Z,12.90
2019-03-30T00:42:36.705Z,12.90
2019-03-30T00:45:06.663Z,12.90
2019-03-30T00:47:35.085Z,12.90
2019-03-30T00:50:03.937Z,12.90
2019-03-30T00:52:32.382Z,12.90
2019-03-30T00:55:00.790Z,12.80
2019-03-30T00:57:29.210Z,12.80
2019-03-30T00:59:57.639Z,12.80
2019-03-30T01:02:26.046Z,12.80
2019-03-30T01:04:54.480Z,12.70
2019-03-30T01:07:22.893Z,12.60
2019-03-30T01:09:51.314Z,12.60
2019-03-30T01:12:19.745Z,12.60
2019-03-30T01:14:48.238Z,12.50
2019-03-30T01:17:16.655Z,12.50
2019-03-30T01:19:45.067Z,12.50
2019-03-30T01:22:13.502Z,12.40
2019-03-30T01:24:41.936Z,12.40
2019-03-30T01:27:10.381Z,12.30
2019-03-30T01:29:38.791Z,12.20
2019-03-30T01:32:07.215Z,12.20
2019-03-30T01:34:35.626Z,12.10
2019-03-30T01:37:04.034Z,12.00
2019-03-30T01:39:32.462Z,12.00
2019-03-30T01:42:00.878Z,11.90
2019-03-30T01:44:29.303Z,11.90
2019-03-30T01:46:57.732Z,11.80
2019-03-30T01:49:26.142Z,11.80
2019-03-30T01:51:54.579Z,11.70
2019-03-30T01:54:22.985Z,11.70
2019-03-30T01:56:51.412Z,11.60
2019-03-30T01:59:19.838Z,11.60
2019-03-30T02:01:48.263Z,11.50
2019-03-30T02:04:16.682Z,11.50
2019-03-30T02:06:45.095Z,11.50
2019-03-30T02:09:13.546Z,11.40
2019-03-30T02:11:41.962Z,11.40
2019-03-30T02:14:10.379Z,11.40
2019-03-30T02:16:38.807Z,11.40
2019-03-30T02:19:07.247Z,11.40
2019-03-30T02:21:35.670Z,11.40
2019-03-30T02:24:04.076Z,11.40
2019-03-30T02:26:32.507Z,11.40
2019-03-30T02:29:00.922Z,11.30
2019-03-30T02:31:29.355Z,11.30
2019-03-30T02:33:57.760Z,11.30
2019-03-30T02:36:26.188Z,11.20
2019-03-30T02:38:54.603Z,11.20
2019-03-30T02:41:23.033Z,11.20
2019-03-30T02:43:51.438Z,11.10
2019-03-30T02:46:20.169Z,11.10
2019-03-30T02:48:48.582Z,11.10
2019-03-30T02:51:17.030Z,11.00
2019-03-30T02:53:45.704Z,11.00
2019-03-30T02:56:14.123Z,11.00
2019-03-30T02:58:42.547Z,11.00
2019-03-30T03:01:10.976Z,11.00
2019-03-30T03:03:39.388Z,11.00
2019-03-30T03:06:07.851Z,11.00
2019-03-30T03:08:36.275Z,11.00
2019-03-30T03:11:04.764Z,11.00
2019-03-30T03:13:33.204Z,11.00
2019-03-30T03:16:01.758Z,11.00
2019-03-30T03:18:30.200Z,11.00
2019-03-30T03:21:07.549Z,11.00
2019-03-30T03:23:28.810Z,11.00
2019-03-30T03:25:57.350Z,11.00
2019-03-30T03:28:25.801Z,11.00
2019-03-30T03:30:54.228Z,11.00
2019-03-30T03:33:22.659Z,11.00
2019-03-30T03:35:51.151Z,11.00
2019-03-30T03:38:19.578Z,11.00
2019-03-30T03:40:47.988Z,11.00
2019-03-30T03:43:16.523Z,11.00
2019-03-30T03:45:44.999Z,11.00
2019-03-30T03:48:13.496Z,11.00
2019-03-30T03:50:43.966Z,11.00
2019-03-30T03:53:13.717Z,10.90
2019-03-30T03:55:42.386Z,10.90
2019-03-30T03:58:12.416Z,10.90
2019-03-30T04:00:40.829Z,10.90
2019-03-30T04:03:11.332Z,10.90
2019-03-30T04:06:00.968Z,10.90
2019-03-30T04:08:31.063Z,10.80
2019-03-30T04:11:00.628Z,10.80
2019-03-30T04:13:30.498Z,10.80
2019-03-30T04:15:58.902Z,10.80
2019-03-30T04:18:27.399Z,10.70
2019-03-30T04:20:55.807Z,10.70
2019-03-30T04:23:24.237Z,10.70
2019-03-30T04:25:52.642Z,10.70
2019-03-30T04:28:21.058Z,10.60
2019-03-30T04:30:49.800Z,10.60
2019-03-30T04:33:18.202Z,10.60
2019-03-30T04:35:46.627Z,10.50
2019-03-30T04:38:15.041Z,10.50
2019-03-30T04:40:43.472Z,10.50
2019-03-30T04:43:11.903Z,10.50
2019-03-30T04:45:40.321Z,10.40
2019-03-30T04:48:08.743Z,10.40
2019-03-30T04:50:37.178Z,10.40
2019-03-30T04:53:05.627Z,10.40
2019-03-30T04:55:34.054Z,10.40
2019-03-30T04:58:02.462Z,10.30
2019-03-30T05:00:30.903Z,10.30
2019-03-30T05:02:59.318Z,10.30
2019-03-30T05:05:27.726Z,10.30
2019-03-30T05:07:56.157Z,10.30
2019-03-30T05:10:24.567Z,10.20
2019-03-30T05:12:52.998Z,10.20
2019-03-30T05:15:21.400Z,10.20
2019-03-30T05:17:49.846Z,10.20
2019-03-30T05:20:18.254Z,10.30
2019-03-30T05:22:46.673Z,10.20
2019-03-30T05:25:15.098Z,10.30
2019-03-30T05:27:43.514Z,10.20
2019-03-30T05:30:12.321Z,10.20
2019-03-30T05:32:41.904Z,10.20
2019-03-30T05:35:10.530Z,10.20
2019-03-30T05:37:39.033Z,10.20
2019-03-30T05:40:09.092Z,10.30
2019-03-30T05:42:37.514Z,10.30
2019-03-30T05:45:25.267Z,10.30
2019-03-30T05:47:53.716Z,10.30
2019-03-30T05:50:22.186Z,10.30
2019-03-30T05:52:50.602Z,10.30
2019-03-30T05:55:19.046Z,10.40
2019-03-30T05:57:47.451Z,10.40
2019-03-30T06:00:17.739Z,10.50
2019-03-30T06:02:46.171Z,10.50
2019-03-30T06:05:14.586Z,10.60
2019-03-30T06:07:43.002Z,10.60
2019-03-30T06:10:11.478Z,10.60
2019-03-30T06:12:39.912Z,10.70
2019-03-30T06:15:08.878Z,10.70
2019-03-30T06:17:37.291Z,10.70
2019-03-30T06:20:07.068Z,10.70
2019-03-30T06:22:40.503Z,10.80
2019-03-30T06:25:06.283Z,10.80
2019-03-30T06:27:34.802Z,10.80
2019-03-30T06:30:14.929Z,10.80
2019-03-30T06:32:45.074Z,10.90
2019-03-30T06:35:13.583Z,10.90
2019-03-30T06:37:42.006Z,10.90
2019-03-30T06:40:10.515Z,10.90
2019-03-30T06:42:38.934Z,11.00
2019-03-30T06:45:07.490Z,11.00
2019-03-30T06:47:35.919Z,11.10
2019-03-30T06:50:06.266Z,11.10
2019-03-30T06:52:34.691Z,11.20
2019-03-30T06:55:03.656Z,11.30
2019-03-30T06:57:32.082Z,11.30
2019-03-30T07:00:00.495Z,11.40
2019-03-30T07:02:28.938Z,11.40
2019-03-30T07:04:57.335Z,11.50
2019-03-30T07:07:26.107Z,11.60
2019-03-30T07:09:56.079Z,11.60
2019-03-30T07:12:24.559Z,11.60
2019-03-30T07:14:55.817Z,11.70
2019-03-30T07:17:24.822Z,11.70
2019-03-30T07:19:54.524Z,11.80
2019-03-30T07:22:22.935Z,11.80
2019-03-30T07:24:52.218Z,11.80
2019-03-30T07:27:20.640Z,11.90
2019-03-30T07:29:49.066Z,11.90
2019-03-30T07:32:17.481Z,11.90
2019-03-30T07:34:45.917Z,12.00
2019-03-30T07:37:14.408Z,12.00
2019-03-30T07:39:42.840Z,12.00
2019-03-30T07:42:11.250Z,12.00
2019-03-30T07:44:39.675Z,12.00
2019-03-30T07:47:08.106Z,12.00
2019-03-30T07:49:36.538Z,12.10
2019-03-30T07:52:04.946Z,12.20
2019-03-30T07:54:33.370Z,12.20
2019-03-30T07:57:07.463Z,12.30
2019-03-30T07:59:31.953Z,12.50
2019-03-30T08:02:00.371Z,12.60
2019-03-30T08:04:28.921Z,12.80
2019-03-30T08:06:57.493Z,13.00
2019-03-30T08:09:25.917Z,13.10
2019-03-30T08:11:54.343Z,13.20
2019-03-30T08:14:22.761Z,13.40
2019-03-30T08:16:51.186Z,13.50
2019-03-30T08:19:21.799Z,13.60
2019-03-30T08:21:49.966Z,13.60
2019-03-30T08:24:18.377Z,13.70
2019-03-30T08:26:46.811Z,13.70
2019-03-30T08:29:15.247Z,13.70
2019-03-30T08:31:43.697Z,13.70
2019-03-30T08:34:12.112Z,13.80
2019-03-30T08:36:40.537Z,13.80
2019-03-30T08:39:09.055Z,13.80
2019-03-30T08:41:37.474Z,13.80
2019-03-30T08:44:05.883Z,13.90
2019-03-30T08:46:34.302Z,14.00
2019-03-30T08:49:02.723Z,14.00
2019-03-30T08:51:31.154Z,14.20
2019-03-30T08:53:59.571Z,14.30
2019-03-30T08:56:28.269Z,14.50
2019-03-30T08:58:56.877Z,14.60
2019-03-30T09:01:25.292Z,14.80
2019-03-30T09:03:53.706Z,14.90
2019-03-30T09:06:22.134Z,15.00
2019-03-30T09:08:50.589Z,15.00
2019-03-30T09:11:19.027Z,15.10
2019-03-30T09:13:47.438Z,15.10
2019-03-30T09:16:15.866Z,15.10
2019-03-30T09:18:44.280Z,15.20
2019-03-30T09:21:12.704Z,15.30
2019-03-30T09:23:41.130Z,15.40
2019-03-30T09:26:09.557Z,15.40
2019-03-30T09:28:37.994Z,15.40
2019-03-30T09:31:06.436Z,15.40
2019-03-30T09:33:34.923Z,15.50
2019-03-30T09:36:03.342Z,15.60
2019-03-30T09:38:31.763Z,15.70
2019-03-30T09:41:00.178Z,15.80
2019-03-30T09:43:28.605Z,15.70
2019-03-30T09:45:57.024Z,15.80
2019-03-30T09:48:25.470Z,15.80
2019-03-30T09:50:53.883Z,15.80
2019-03-30T09:53:22.313Z,15.80
2019-03-30T09:55:50.732Z,15.80
2019-03-30T09:58:19.182Z,15.90
2019-03-30T10:00:47.648Z,15.90
2019-03-30T10:03:16.074Z,16.00
2019-03-30T10:05:44.519Z,16.00
2019-03-30T10:08:32.298Z,16.00
2019-03-30T10:11:00.709Z,16.00
2019-03-30T10:13:29.118Z,16.00
2019-03-30T10:15:57.562Z,16.10
2019-03-30T10:18:25.975Z,16.10
2019-03-30T10:20:54.405Z,16.10
2019-03-30T10:23:22.820Z,16.00
2019-03-30T10:25:51.239Z,16.00
2019-03-30T10:28:19.691Z,16.00
2019-03-30T10:30:48.148Z,16.00
2019-03-30T10:33:16.621Z,16.10
2019-03-30T10:35:45.078Z,16.20
2019-03-30T10:38:13.492Z,16.30
2019-03-30T10:40:41.906Z,16.30
2019-03-30T10:43:10.331Z,16.40
2019-03-30T10:45:38.830Z,16.40
2019-03-30T10:48:07.263Z,16.50
2019-03-30T10:50:35.694Z,16.60
2019-03-30T10:53:04.111Z,16.80
2019-03-30T10:55:32.534Z,16.90
2019-03-30T10:58:00.963Z,17.00
2019-03-30T11:00:39.779Z,17.10
2019-03-30T11:03:08.282Z,17.20
2019-03-30T11:05:37.008Z,17.30
2019-03-30T11:08:05.434Z,17.40
2019-03-30T11:10:33.928Z,17.40
2019-03-30T11:13:02.358Z,17.50
2019-03-30T11:15:33.917Z,17.50
2019-03-30T11:18:00.923Z,17.60
2019-03-30T11:20:29.338Z,17.70
2019-03-30T11:22:57.768Z,17.90
2019-03-30T11:25:26.198Z,17.90
2019-03-30T11:27:54.650Z,18.00
2019-03-30T11:30:23.073Z,18.10
2019-03-30T11:32:51.516Z,18.20
2019-03-30T11:35:19.947Z,18.30
2019-03-30T11:37:48.359Z,18.40
2019-03-30T11:40:16.782Z,18.40
2019-03-30T11:42:45.197Z,18.50
2019-03-30T11:45:13.759Z,18.50
2019-03-30T11:47:42.201Z,18.50
2019-03-30T11:50:10.611Z,18.70
2019-03-30T11:52:39.041Z,18.80
2019-03-30T11:55:20.673Z,18.90
2019-03-30T11:57:37.687Z,18.90
2019-03-30T12:00:07.139Z,19.00
2019-03-30T12:02:35.573Z,19.20
2019-03-30T12:05:07.698Z,19.20
2019-03-30T12:07:36.130Z,19.30
2019-03-30T12:10:08.443Z,19.30
2019-03-30T12:12:37.484Z,19.50
2019-03-30T12:15:07.602Z,19.50
2019-03-30T12:17:36.016Z,19.50
2019-03-30T12:20:06.383Z,19.60
2019-03-30T12:22:34.810Z,19.60
2019-03-30T12:25:03.385Z,19.60
2019-03-30T12:27:31.815Z,19.50
2019-03-30T12:30:00.487Z,19.50
2019-03-30T12:32:29.209Z,19.50
2019-03-30T12:34:57.625Z,19.70
2019-03-30T12:37:26.046Z,19.90
2019-03-30T12:39:56.714Z,20.00
2019-03-30T12:42:24.608Z,20.10
2019-03-30T12:44:53.039Z,20.30
2019-03-30T12:47:21.450Z,20.40
2019-03-30T12:49:49.871Z,20.50
2019-03-30T12:52:18.324Z,20.70
2019-03-30T12:54:46.771Z,20.90
2019-03-30T12:57:15.186Z,21.00
2019-03-30T12:59:43.619Z,21.20
2019-03-30T13:02:12.031Z,21.40
2019-03-30T13:04:40.481Z,21.50
2019-03-30T13:07:08.881Z,21.70
2019-03-30T13:09:37.330Z,21.80
2019-03-30T13:12:05.844Z,21.70
2019-03-30T13:14:34.299Z,21.60
2019-03-30T13:17:02.812Z,21.50
2019-03-30T13:19:31.214Z,21.50
2019-03-30T13:21:59.647Z,21.40
2019-03-30T13:24:28.074Z,21.10
2019-03-30T13:26:56.507Z,20.90
2019-03-30T13:29:24.935Z,20.80
2019-03-30T13:31:53.458Z,20.80
2019-03-30T13:34:21.878Z,20.70
2019-03-30T13:36:50.305Z,20.60
2019-03-30T13:39:18.750Z,20.60
2019-03-30T13:41:47.179Z,20.60
2019-03-30T13:44:15.666Z,20.70
2019-03-30T13:46:44.762Z,20.80
2019-03-30T13:49:13.193Z,21.00
2019-03-30T13:51:41.635Z,21.20
2019-03-30T13:54:10.067Z,22.10
2019-03-30T13:56:38.497Z,23.90
2019-03-30T13:59:06.931Z,24.00
2019-03-30T14:01:35.349Z,23.50
2019-03-30T14:04:03.792Z,23.00
2019-03-30T14:06:32.209Z,22.60
2019-03-30T14:09:00.646Z,22.30
2019-03-30T14:11:29.089Z,22.20
2019-03-30T14:13:57.634Z,22.20
2019-03-30T14:16:26.066Z,23.40
2019-03-30T14:18:54.482Z,25.90
2019-03-30T14:21:22.921Z,25.80
2019-03-30T14:23:51.330Z,25.00
2019-03-30T14:26:30.727Z,24.00
2019-03-30T14:28:49.901Z,23.20
2019-03-30T14:31:18.353Z,22.50
2019-03-30T14:33:46.779Z,22.10
2019-03-30T14:36:15.214Z,21.80
2019-03-30T14:38:43.629Z,21.50
2019-03-30T14:41:12.342Z,21.40
2019-03-30T14:43:40.766Z,21.20
2019-03-30T14:46:09.282Z,21.00
2019-03-30T14:48:37.746Z,20.90
2019-03-30T14:51:06.186Z,20.80
2019-03-30T14:53:34.606Z,20.80
2019-03-30T14:56:03.025Z,20.80
2019-03-30T14:58:31.459Z,21.30
2019-03-30T15:01:03.099Z,22.70
2019-03-30T15:03:30.083Z,25.40
2019-03-30T15:05:58.510Z,28.00
2019-03-30T15:08:26.930Z,29.90
2019-03-30T15:10:55.370Z,31.60
2019-03-30T15:13:23.794Z,32.40
2019-03-30T15:15:52.214Z,33.30
2019-03-30T15:18:20.656Z,33.80
2019-03-30T15:20:49.069Z,34.40
2019-03-30T15:23:17.480Z,34.30
2019-03-30T15:25:46.076Z,34.00
2019-03-30T15:28:14.494Z,34.10
2019-03-30T15:30:42.922Z,34.40
2019-03-30T15:33:11.338Z,34.40
2019-03-30T15:35:39.831Z,34.00
2019-03-30T15:38:08.329Z,32.00
2019-03-30T15:40:36.735Z,30.10
2019-03-30T15:43:05.244Z,29.20
2019-03-30T15:45:33.658Z,29.40
2019-03-30T15:48:02.087Z,30.30
2019-03-30T15:50:30.520Z,31.20
2019-03-30T15:52:58.957Z,31.70
2019-03-30T15:55:27.385Z,31.30
2019-03-30T15:57:55.821Z,29.90
2019-03-30T16:00:24.243Z,28.50
2019-03-30T16:02:52.759Z,27.40
2019-03-30T16:05:21.174Z,26.50
2019-03-30T16:07:49.589Z,25.80
2019-03-30T16:10:18.021Z,25.20
2019-03-30T16:12:46.459Z,24.70
2019-03-30T16:15:15.031Z,24.40
2019-03-30T16:17:43.446Z,24.10
2019-03-30T16:20:12.910Z,24.30
2019-03-30T16:22:41.341Z,25.20
2019-03-30T16:25:10.298Z,25.80
2019-03-30T16:27:39.424Z,25.40
2019-03-30T16:30:09.836Z,24.90
2019-03-30T16:32:38.319Z,24.70
2019-03-30T16:35:07.691Z,24.50
2019-03-30T16:37:36.106Z,24.60
2019-03-30T16:40:05.871Z,24.90
2019-03-30T16:42:34.301Z,25.30
2019-03-30T16:45:02.719Z,25.80
2019-03-30T16:47:31.215Z,26.00
2019-03-30T16:49:59.631Z,25.90
2019-03-30T16:52:28.056Z,26.00
2019-03-30T16:54:56.491Z,26.20
2019-03-30T16:57:24.909Z,26.30
2019-03-30T16:59:53.333Z,26.20
2019-03-30T17:02:21.768Z,26.30
2019-03-30T17:04:50.282Z,26.40
2019-03-30T17:07:18.690Z,26.40
2019-03-30T17:09:47.129Z,26.30
2019-03-30T17:12:15.599Z,26.20
2019-03-30T17:14:44.026Z,26.10
2019-03-30T17:17:12.444Z,26.00
2019-03-30T17:19:40.891Z,25.90
2019-03-30T17:22:09.339Z,25.70
2019-03-30T17:24:37.799Z,25.40
2019-03-30T17:27:06.246Z,25.10
2019-03-30T17:29:34.796Z,24.80
2019-03-30T17:32:03.211Z,24.50
2019-03-30T17:34:31.746Z,24.00
2019-03-30T17:37:00.219Z,23.40
2019-03-30T17:39:28.635Z,22.80
2019-03-30T17:41:57.064Z,22.40
2019-03-30T17:44:25.479Z,22.00
2019-03-30T17:46:53.902Z,21.70
2019-03-30T17:49:22.326Z,21.50
2019-03-30T17:51:53.865Z,21.10
2019-03-30T17:54:20.888Z,20.90
2019-03-30T17:56:49.314Z,20.60
2019-03-30T17:59:17.760Z,20.40
2019-03-30T18:01:46.232Z,20.20
2019-03-30T18:04:14.674Z,20.10
2019-03-30T18:06:43.096Z,19.90
2019-03-30T18:09:12.222Z,19.80
2019-03-30T18:11:40.706Z,19.60
2019-03-30T18:14:09.204Z,19.50
2019-03-30T18:16:37.635Z,19.40
2019-03-30T18:19:06.071Z,19.30
2019-03-30T18:21:37.706Z,19.20
2019-03-30T18:24:04.698Z,19.10
2019-03-30T18:26:33.126Z,18.90
2019-03-30T18:29:01.623Z,18.70
2019-03-30T18:31:30.058Z,18.60
2019-03-30T18:33:58.640Z,18.50
2019-03-30T18:36:28.940Z,18.30
2019-03-30T18:39:09.316Z,18.20
2019-03-30T18:41:28.665Z,18.10
2019-03-30T18:43:57.151Z,17.90
2019-03-30T18:46:25.582Z,17.80
2019-03-30T18:48:54.026Z,17.80
2019-03-30T18:51:23.381Z,17.70
2019-03-30T18:53:52.741Z,17.60
2019-03-30T18:56:21.287Z,17.60
2019-03-30T18:58:49.734Z,17.50
2019-03-30T19:01:18.146Z,17.40
2019-03-30T19:03:46.568Z,17.30
2019-03-30T19:06:15.004Z,17.30
2019-03-30T19:08:43.473Z,17.20
2019-03-30T19:11:11.924Z,17.10
2019-03-30T19:13:40.358Z,17.00
2019-03-30T19:16:08.775Z,16.90
2019-03-30T19:18:37.195Z,16.80
2019-03-30T19:21:05.628Z,16.80
2019-03-30T19:23:34.059Z,16.70
2019-03-30T19:26:02.474Z,16.70
2019-03-30T19:28:30.917Z,16.60
2019-03-30T19:30:59.334Z,16.50
2019-03-30T19:33:27.748Z,16.50
2019-03-30T19:35:56.201Z,16.40
2019-03-30T19:38:24.623Z,16.30
2019-03-30T19:40:53.054Z,16.30
2019-03-30T19:43:21.471Z,16.20
2019-03-30T19:45:49.922Z,16.20
2019-03-30T19:48:18.351Z,16.20
2019-03-30T19:50:46.899Z,16.10
2019-03-30T19:53:15.357Z,16.10
2019-03-30T19:55:43.781Z,16.10
2019-03-30T19:58:12.224Z,16.00
2019-03-30T20:00:40.710Z,16.00
2019-03-30T20:03:09.131Z,15.90
2019-03-30T20:05:37.559Z,15.80
2019-03-30T20:08:12.135Z,15.80
2019-03-30T20:10:36.142Z,15.80
2019-03-30T20:13:04.591Z,15.90
2019-03-30T20:15:33.071Z,15.90
2019-03-30T20:18:01.494Z,15.90
2019-03-30T20:20:29.982Z,15.90
2019-03-30T20:22:58.393Z,15.80
2019-03-30T20:25:27.019Z,15.80
2019-03-30T20:27:55.530Z,15.60
2019-03-30T20:30:24.600Z,15.60
2019-03-30T20:32:53.174Z,15.50
2019-03-30T20:35:21.740Z,15.50
2019-03-30T20:37:50.161Z,15.50
2019-03-30T20:40:18.591Z,15.40
2019-03-30T20:42:47.043Z,15.40
2019-03-30T20:45:16.602Z,15.40
2019-03-30T20:47:45.095Z,15.40
2019-03-30T20:50:14.378Z,15.30
2019-03-30T20:52:42.807Z,15.30
2019-03-30T20:55:11.360Z,15.30
2019-03-30T20:57:39.870Z,15.30
2019-03-30T21:00:10.456Z,15.30
2019-03-30T21:02:38.873Z,15.20
2019-03-30T21:05:08.608Z,15.20
2019-03-30T21:07:37.048Z,15.20
2019-03-30T21:10:07.867Z,15.20
2019-03-30T21:12:36.375Z,15.10
2019-03-30T21:15:06.337Z,15.10
2019-03-30T21:17:34.819Z,15.10
2019-03-30T21:20:04.402Z,15.10
2019-03-30T21:22:32.983Z,15.00
2019-03-30T21:25:01.407Z,15.00
2019-03-30T21:27:29.827Z,15.00
2019-03-30T21:29:58.251Z,14.90
2019-03-30T21:32:26.687Z,14.90
2019-03-30T21:34:55.206Z,14.90
2019-03-30T21:37:23.682Z,14.90
2019-03-30T21:39:52.202Z,15.00
2019-03-30T21:42:20.623Z,14.90
2019-03-30T21:44:49.108Z,14.90
2019-03-30T21:47:17.550Z,14.90
2019-03-30T21:49:45.978Z,14.70
2019-03-30T21:52:14.393Z,14.60
2019-03-30T21:54:42.839Z,14.50
2019-03-30T21:57:11.246Z,14.50
2019-03-30T21:59:39.666Z,14.40
2019-03-30T22:02:08.099Z,14.40
2019-03-30T22:04:36.522Z,14.40
2019-03-30T22:07:05.230Z,14.30
2019-03-30T22:09:33.884Z,14.30
2019-03-30T22:12:02.319Z,14.30
2019-03-30T22:14:30.731Z,14.20
2019-03-30T22:16:59.175Z,14.20
2019-03-30T22:19:27.594Z,14.10
2019-03-30T22:21:56.027Z,14.10
2019-03-30T22:24:24.438Z,14.00
2019-03-30T22:26:52.867Z,14.00
2019-03-30T22:29:21.294Z,13.90
2019-03-30T22:31:49.732Z,13.80
2019-03-30T22:34:18.150Z,13.80
2019-03-30T22:36:46.588Z,13.70
2019-03-30T22:39:15.015Z,13.60
2019-03-30T22:41:43.433Z,13.60
2019-03-30T22:44:11.877Z,13.50
2019-03-30T22:46:40.329Z,13.50
2019-03-30T22:49:09.659Z,13.50
2019-03-30T22:51:38.061Z,13.40
2019-03-30T22:54:06.495Z,13.40
2019-03-30T22:56:34.995Z,13.30
2019-03-30T22:59:03.428Z,13.20
2019-03-30T23:01:32.563Z,13.10
2019-03-30T23:04:00.997Z,13.10
2019-03-30T23:06:29.486Z,13.10
2019-03-30T23:08:57.905Z,13.10
2019-03-30T23:11:26.339Z,13.10
2019-03-30T23:13:54.757Z,13.10
2019-03-30T23:16:23.195Z,13.10
2019-03-30T23:18:51.647Z,13.10
2019-03-30T23:21:20.074Z,13.10
2019-03-30T23:23:48.491Z,13.10
2019-03-30T23:26:16.929Z,13.10
2019-03-30T23:28:45.398Z,13.00
2019-03-30T23:31:13.868Z,13.00
2019-03-30T23:33:42.611Z,13.00
2019-03-30T23:36:11.022Z,13.00
2019-03-30T23:38:39.442Z,12.90
2019-03-30T23:41:07.890Z,12.90
2019-03-30T23:43:36.303Z,12.80
2019-03-30T23:46:04.722Z,12.80
2019-03-30T23:48:33.158Z,12.70
2019-03-30T23:51:01.584Z,12.60
2019-03-30T23:53:30.023Z,12.50
2019-03-30T23:55:58.430Z,12.50
2019-03-30T23:58:27.131Z,12.40
